Main page
METAR-TAF:

METAR-TAF

Airports :

Lamerd Airport

Lamerd, Iran

latitude: 27-22-22N, longitude: 53-11-20E, elevation: 408 m

Current weather observation

The report was made 5 hours and 11 minutes ago, at 15:00 UTC
Calm wind
Temperature 14°C
Humidity 77%
Pressure 1020 hPa
Visibility 10 km or more
no clouds below 1500 m and no cumulonimbus

METAR: OISR 291500Z 00000KT CAVOK 14/10 Q1019 A3012 NOSIG

Time: 23:41 (20:11 UTC)


TAF: missing

Weather observations and forecasts of more than 4000 airports (METAR and TAF reports).

The available stations are represented by yellow and red dots on the map.

Hover mouse over dot to see the name of the station.

Then click to see weather observations and forecasts.

To change the map : click on the green buttons with a black cross to zoom in, on the green button with a dash to zoom out, or on the green arrows for adjacent maps.


METAR-TAF: